createdAt,value
2019-02-23T00:02:17.198Z,95.20
2019-02-23T00:04:45.621Z,95.10
2019-02-23T00:07:14.285Z,94.70
2019-02-23T00:09:42.709Z,94.50
2019-02-23T00:12:11.126Z,94.20
2019-02-23T00:14:39.793Z,93.90
2019-02-23T00:17:08.224Z,93.80
2019-02-23T00:19:36.641Z,93.80
2019-02-23T00:22:05.356Z,93.90
2019-02-23T00:24:36.909Z,94.00
2019-02-23T00:27:05.589Z,93.90
2019-02-23T00:29:34.005Z,94.10
2019-02-23T00:32:02.438Z,94.10
2019-02-23T00:34:31.103Z,94.40
2019-02-23T00:36:59.534Z,94.50
2019-02-23T00:39:27.960Z,94.40
2019-02-23T00:41:56.390Z,94.50
2019-02-23T00:44:24.798Z,94.60
2019-02-23T00:46:53.229Z,94.70
2019-02-23T00:49:21.890Z,94.80
2019-02-23T00:51:51.883Z,94.90
2019-02-23T00:54:20.581Z,94.90
2019-02-23T00:56:49.005Z,94.90
2019-02-23T00:59:17.424Z,94.90
2019-02-23T01:01:45.849Z,94.80
2019-02-23T01:04:14.265Z,94.80
2019-02-23T01:06:42.697Z,95.10
2019-02-23T01:09:11.113Z,95.30
2019-02-23T01:11:39.541Z,95.30
2019-02-23T01:14:07.962Z,95.30
2019-02-23T01:16:36.392Z,95.60
2019-02-23T01:19:05.054Z,95.60
2019-02-23T01:21:33.762Z,95.70
2019-02-23T01:24:02.218Z,95.60
2019-02-23T01:26:30.649Z,95.60
2019-02-23T01:28:59.144Z,95.60
2019-02-23T01:31:27.787Z,95.90
2019-02-23T01:33:56.495Z,95.70
2019-02-23T01:36:24.931Z,95.70
2019-02-23T01:38:53.347Z,95.70
2019-02-23T01:41:22.009Z,95.60
2019-02-23T01:43:50.473Z,95.80
2019-02-23T01:46:18.898Z,95.90
2019-02-23T01:48:47.565Z,95.90
2019-02-23T01:51:15.990Z,95.90
2019-02-23T01:53:44.405Z,95.80
2019-02-23T01:56:12.901Z,95.80
2019-02-23T01:58:41.314Z,95.70
2019-02-23T02:01:09.738Z,95.70
2019-02-23T02:03:38.150Z,95.80
2019-02-23T02:06:06.645Z,95.70
2019-02-23T02:08:36.070Z,95.70
2019-02-23T02:11:04.493Z,95.60
2019-02-23T02:13:33.167Z,95.50
2019-02-23T02:16:01.821Z,95.50
2019-02-23T02:18:30.458Z,95.50
2019-02-23T02:20:59.159Z,95.30
2019-02-23T02:23:27.581Z,95.30
2019-02-23T02:25:56.216Z,95.40
2019-02-23T02:28:24.971Z,95.50
2019-02-23T02:30:53.431Z,95.50
2019-02-23T02:33:22.096Z,95.60
2019-02-23T02:35:50.514Z,95.70
2019-02-23T02:38:19.162Z,95.60
2019-02-23T02:40:47.877Z,95.60
2019-02-23T02:43:16.307Z,95.70
2019-02-23T02:45:44.721Z,95.70
2019-02-23T02:48:13.148Z,95.70
2019-02-23T02:50:41.889Z,95.70
2019-02-23T02:53:10.311Z,95.80
2019-02-23T02:55:38.971Z,95.80
2019-02-23T02:58:07.405Z,95.90
2019-02-23T03:00:35.813Z,96.00
2019-02-23T03:03:04.237Z,95.90
2019-02-23T03:05:32.660Z,95.70
2019-02-23T03:08:01.090Z,95.80
2019-02-23T03:10:29.503Z,96.00
2019-02-23T03:12:57.933Z,95.90
2019-02-23T03:15:26.360Z,95.90
2019-02-23T03:17:54.794Z,96.00
2019-02-23T03:20:35.957Z,96.10
2019-02-23T03:22:53.836Z,96.10
2019-02-23T03:25:22.539Z,96.10
2019-02-23T03:27:50.961Z,96.30
2019-02-23T03:30:19.648Z,96.30
2019-02-23T03:32:48.109Z,96.40
2019-02-23T03:35:16.519Z,96.30
2019-02-23T03:37:45.154Z,96.60
2019-02-23T03:40:13.679Z,96.70
2019-02-23T03:42:42.309Z,96.80
2019-02-23T03:45:11.002Z,96.60
2019-02-23T03:47:39.429Z,96.90
2019-02-23T03:50:08.581Z,96.60
2019-02-23T03:52:37.070Z,96.70
2019-02-23T03:55:06.024Z,96.70
2019-02-23T03:57:34.489Z,96.50
2019-02-23T04:00:03.170Z,96.60
2019-02-23T04:02:31.579Z,96.60
2019-02-23T04:05:00.405Z,96.50
2019-02-23T04:07:29.042Z,96.30
2019-02-23T04:09:57.497Z,96.30
2019-02-23T04:12:26.158Z,96.40
2019-02-23T04:14:54.608Z,96.40
2019-02-23T04:17:23.021Z,96.40
2019-02-23T04:19:51.669Z,96.50
2019-02-23T04:22:20.391Z,96.70
2019-02-23T04:24:48.819Z,96.50
2019-02-23T04:27:17.478Z,96.40
2019-02-23T04:29:47.037Z,96.50
2019-02-23T04:32:15.706Z,96.50
2019-02-23T04:34:44.370Z,96.50
2019-02-23T04:37:13.024Z,96.50
2019-02-23T04:39:41.742Z,96.30
2019-02-23T04:42:10.446Z,96.10
2019-02-23T04:44:39.172Z,96.00
2019-02-23T04:47:07.832Z,96.00
2019-02-23T04:49:36.250Z,95.80
2019-02-23T04:52:04.888Z,95.70
2019-02-23T04:54:36.425Z,95.60
2019-02-23T04:57:04.847Z,95.40
2019-02-23T04:59:33.269Z,95.10
2019-02-23T05:02:01.682Z,95.10
2019-02-23T05:04:30.346Z,94.80
2019-02-23T05:06:58.795Z,94.70
2019-02-23T05:09:27.221Z,94.60
2019-02-23T05:11:55.893Z,94.50
2019-02-23T05:14:24.638Z,94.70
2019-02-23T05:16:53.046Z,94.50
2019-02-23T05:19:21.470Z,94.50
2019-02-23T05:21:50.138Z,94.50
2019-02-23T05:24:18.566Z,94.50
2019-02-23T05:26:46.977Z,94.50
2019-02-23T05:29:15.626Z,94.20
2019-02-23T05:31:44.073Z,94.00
2019-02-23T05:34:12.754Z,93.80
2019-02-23T05:36:41.396Z,93.30
2019-02-23T05:39:09.845Z,92.90
2019-02-23T05:41:38.507Z,92.40
2019-02-23T05:44:07.202Z,91.70
2019-02-23T05:46:35.669Z,91.60
2019-02-23T05:49:04.098Z,91.40
2019-02-23T05:51:38.653Z,91.30
2019-02-23T05:54:02.973Z,91.20
2019-02-23T05:56:31.642Z,91.30
2019-02-23T05:59:00.294Z,91.20
2019-02-23T06:01:28.975Z,91.20
2019-02-23T06:03:57.386Z,91.50
2019-02-23T06:06:25.814Z,91.60
2019-02-23T06:08:54.221Z,91.20
2019-02-23T06:11:22.879Z,91.30
2019-02-23T06:13:51.346Z,91.20
2019-02-23T06:16:19.765Z,91.10
2019-02-23T06:18:48.185Z,91.20
2019-02-23T06:21:16.625Z,91.30
2019-02-23T06:23:45.037Z,91.30
2019-02-23T06:26:13.498Z,91.40
2019-02-23T06:28:42.130Z,91.40
2019-02-23T06:31:10.593Z,91.50
2019-02-23T06:33:39.010Z,91.70
2019-02-23T06:36:07.457Z,91.80
2019-02-23T06:38:35.864Z,92.00
2019-02-23T06:41:04.288Z,92.00
2019-02-23T06:43:32.942Z,92.10
2019-02-23T06:46:01.422Z,92.00
2019-02-23T06:48:29.866Z,91.80
2019-02-23T06:50:58.281Z,91.60
2019-02-23T06:53:26.696Z,91.40
2019-02-23T06:55:55.109Z,91.20
2019-02-23T06:58:23.522Z,91.10
2019-02-23T07:00:51.951Z,90.50
2019-02-23T07:03:20.354Z,90.70
2019-02-23T07:05:49.514Z,90.40
2019-02-23T07:08:17.930Z,90.00
2019-02-23T07:10:46.450Z,89.20
2019-02-23T07:13:15.098Z,88.80
2019-02-23T07:15:43.527Z,89.20
2019-02-23T07:18:11.938Z,87.50
2019-02-23T07:20:44.267Z,86.60
2019-02-23T07:23:10.506Z,85.40
2019-02-23T07:25:38.885Z,85.10
2019-02-23T07:28:07.331Z,85.00
2019-02-23T07:30:35.754Z,84.30
2019-02-23T07:33:04.189Z,83.00
2019-02-23T07:35:32.609Z,83.20
2019-02-23T07:38:01.058Z,82.90
2019-02-23T07:40:29.534Z,82.10
2019-02-23T07:42:57.971Z,81.80
2019-02-23T07:45:26.457Z,82.20
2019-02-23T07:47:54.863Z,80.70
2019-02-23T07:50:23.285Z,80.30
2019-02-23T07:52:51.943Z,80.10
2019-02-23T07:55:20.694Z,79.40
2019-02-23T07:57:49.175Z,78.70
2019-02-23T08:00:17.591Z,78.00
2019-02-23T08:02:46.266Z,77.10
2019-02-23T08:05:14.674Z,77.80
2019-02-23T08:07:43.105Z,78.80
2019-02-23T08:10:12.774Z,77.30
2019-02-23T08:12:41.209Z,76.40
2019-02-23T08:15:11.518Z,76.40
2019-02-23T08:17:39.933Z,75.90
2019-02-23T08:20:12.896Z,75.80
2019-02-23T08:22:41.326Z,74.60
2019-02-23T08:25:12.070Z,73.70
2019-02-23T08:27:40.713Z,72.70
2019-02-23T08:30:14.486Z,72.50
2019-02-23T08:32:42.911Z,72.10
2019-02-23T08:35:11.313Z,71.80
2019-02-23T08:37:39.741Z,72.10
2019-02-23T08:40:11.195Z,69.40
2019-02-23T08:42:39.614Z,69.20
2019-02-23T08:45:09.565Z,67.70
2019-02-23T08:47:38.006Z,67.60
2019-02-23T08:50:09.440Z,66.10
2019-02-23T08:52:48.122Z,64.20
2019-02-23T08:55:09.570Z,63.70
2019-02-23T08:57:38.243Z,62.10
2019-02-23T09:00:15.430Z,61.00
2019-02-23T09:02:44.068Z,58.30
2019-02-23T09:05:13.502Z,55.10
2019-02-23T09:07:41.947Z,49.60
2019-02-23T09:10:12.782Z,40.60
2019-02-23T09:12:41.248Z,32.70
2019-02-23T09:15:10.690Z,28.20
2019-02-23T09:17:39.114Z,21.50
2019-02-23T09:20:09.584Z,17.40
2019-02-23T09:22:38.078Z,12.90
2019-02-23T09:25:10.839Z,8.30
2019-02-23T09:27:39.347Z,3.10
2019-02-23T09:30:14.751Z,1.00
2019-02-23T09:32:43.237Z,1.00
2019-02-23T09:35:12.870Z,1.00
2019-02-23T09:37:41.363Z,1.00
2019-02-23T09:40:18.343Z,1.00
2019-02-23T09:42:46.908Z,1.00
2019-02-23T09:45:15.348Z,1.00
2019-02-23T09:47:43.895Z,1.00
2019-02-23T09:50:12.323Z,1.00
2019-02-23T09:52:40.739Z,1.00
2019-02-23T09:55:09.573Z,1.00
2019-02-23T09:57:38.338Z,1.00
2019-02-23T10:00:11.901Z,1.00
2019-02-23T10:02:40.556Z,1.90
2019-02-23T10:05:09.562Z,1.50
2019-02-23T10:07:38.187Z,4.30
2019-02-23T10:10:09.315Z,3.30
2019-02-23T10:12:37.797Z,4.00
2019-02-23T10:15:08.487Z,4.10
2019-02-23T10:17:36.939Z,4.30
2019-02-23T10:20:08.609Z,3.70
2019-02-23T10:22:39.533Z,5.70
2019-02-23T10:25:07.399Z,6.40
2019-02-23T10:27:35.859Z,6.70
2019-02-23T10:30:07.143Z,6.40
2019-02-23T10:32:35.579Z,7.70
2019-02-23T10:35:04.833Z,8.10
2019-02-23T10:37:33.262Z,8.30
2019-02-23T10:40:01.689Z,8.80
2019-02-23T10:42:30.121Z,9.00
2019-02-23T10:44:58.542Z,7.10
2019-02-23T10:47:26.954Z,7.80
2019-02-23T10:49:55.647Z,5.70
2019-02-23T10:52:24.088Z,5.50
2019-02-23T10:54:52.782Z,5.40
2019-02-23T10:57:21.207Z,2.30
2019-02-23T10:59:50.495Z,1.00
2019-02-23T11:02:18.971Z,1.00
2019-02-23T11:04:47.394Z,1.00
2019-02-23T11:07:15.879Z,1.00
2019-02-23T11:09:44.299Z,1.00
2019-02-23T11:44:20.368Z,1.00
2019-02-23T11:46:59.804Z,1.00
2019-02-23T11:49:18.930Z,1.00
2019-02-23T11:51:47.596Z,1.00
2019-02-23T11:54:16.252Z,1.00
2019-02-23T11:56:44.658Z,1.00
2019-02-23T11:59:13.323Z,1.00
2019-02-23T12:01:41.742Z,1.00
2019-02-23T12:04:10.159Z,1.00
2019-02-23T12:06:38.586Z,1.00
2019-02-23T12:09:08.218Z,1.00
2019-02-23T12:11:37.114Z,1.00
2019-02-23T12:14:05.547Z,1.00
2019-02-23T12:16:33.970Z,1.00
2019-02-23T12:19:02.613Z,1.00
2019-02-23T12:21:31.293Z,1.00
2019-02-23T12:24:06.014Z,1.00
2019-02-23T12:26:30.137Z,1.00
2019-02-23T12:28:58.575Z,1.00
2019-02-23T12:31:27.022Z,1.00
2019-02-23T12:33:55.661Z,1.00
2019-02-23T12:36:24.114Z,1.00
2019-02-23T12:38:52.822Z,1.00
2019-02-23T12:41:21.240Z,1.00
2019-02-23T12:43:49.652Z,1.00
2019-02-23T12:46:18.104Z,1.00
2019-02-23T12:48:46.767Z,1.00
2019-02-23T12:51:15.188Z,1.00
2019-02-23T12:53:43.608Z,1.00
2019-02-23T12:56:12.039Z,1.00
2019-02-23T12:58:40.501Z,1.00
2019-02-23T13:01:09.132Z,1.00
2019-02-23T13:03:37.672Z,1.00
2019-02-23T13:06:06.119Z,1.00
2019-02-23T13:09:11.147Z,1.00
2019-02-23T13:11:39.719Z,1.00
2019-02-23T13:14:11.213Z,1.00
2019-02-23T13:16:39.706Z,1.00
2019-02-23T13:19:29.503Z,1.00
2019-02-23T13:22:03.655Z,1.00
2019-02-23T13:24:40.813Z,1.00
2019-02-23T13:27:21.561Z,1.00
2019-02-23T13:30:11.463Z,1.00
2019-02-23T13:32:51.742Z,1.00
2019-02-23T13:35:50.017Z,1.00
2019-02-23T13:38:42.506Z,1.00
2019-02-23T13:41:19.539Z,1.00
2019-02-23T13:43:53.651Z,1.00
2019-02-23T13:46:25.127Z,1.00
2019-02-23T13:49:19.428Z,1.00
2019-02-23T13:51:57.321Z,1.00
2019-02-23T13:54:45.298Z,1.00
2019-02-23T13:57:28.431Z,1.00
2019-02-23T14:00:21.256Z,1.00
2019-02-23T14:03:07.351Z,1.00
2019-02-23T14:05:44.607Z,1.00
2019-02-23T14:08:18.986Z,1.00
2019-02-23T14:11:17.275Z,1.00
2019-02-23T14:14:04.020Z,1.00
2019-02-23T14:16:41.110Z,1.00
2019-02-23T14:19:27.447Z,1.00
2019-02-23T14:22:11.022Z,1.00
2019-02-23T14:24:50.011Z,1.00
2019-02-23T14:27:40.492Z,1.00
2019-02-23T14:30:23.858Z,1.00
2019-02-23T14:32:58.063Z,1.00
2019-02-23T14:35:55.417Z,1.00
2019-02-23T14:38:45.313Z,1.00
2019-02-23T14:41:22.453Z,1.00
2019-02-23T14:43:59.851Z,1.00
2019-02-23T14:46:52.320Z,1.00
2019-02-23T14:49:35.746Z,1.00
2019-02-23T14:52:12.998Z,1.00
2019-02-23T14:55:00.701Z,1.00
2019-02-23T14:57:44.309Z,1.00
2019-02-23T15:00:27.729Z,1.00
2019-02-23T15:03:21.881Z,1.00
2019-02-23T15:06:11.511Z,1.00
2019-02-23T15:08:45.669Z,1.00
2019-02-23T15:11:22.938Z,1.00
2019-02-23T15:14:09.243Z,1.00
2019-02-23T15:17:05.158Z,1.00
2019-02-23T15:19:51.562Z,1.00
2019-02-23T15:22:45.297Z,1.00
2019-02-23T15:25:25.623Z,1.00
2019-02-23T15:28:37.427Z,1.00
2019-02-23T15:31:15.457Z,1.00
2019-02-23T15:34:04.598Z,1.30
2019-02-23T15:36:41.921Z,1.50
2019-02-23T15:52:02.505Z,23.40
2019-02-23T15:54:31.014Z,21.60
2019-02-23T15:56:59.450Z,21.20
2019-02-23T15:59:27.876Z,24.10
2019-02-23T16:01:56.298Z,27.10
2019-02-23T16:04:24.705Z,19.50
2019-02-23T16:06:53.176Z,16.50
2019-02-23T16:09:21.883Z,12.70
2019-02-23T16:11:50.346Z,10.70
2019-02-23T16:14:18.755Z,9.60
2019-02-23T16:16:47.659Z,9.00
2019-02-23T16:19:16.169Z,7.40
2019-02-23T16:21:44.832Z,6.50
2019-02-23T16:24:13.305Z,6.40
2019-02-23T16:26:41.714Z,6.10
2019-02-23T16:29:10.130Z,6.80
2019-02-23T16:31:38.558Z,6.90
2019-02-23T16:34:07.468Z,7.30
2019-02-23T16:36:36.217Z,7.70
2019-02-23T16:39:08.750Z,8.10
2019-02-23T16:41:37.429Z,8.10
2019-02-23T16:44:05.834Z,7.50
2019-02-23T16:46:34.247Z,7.80
2019-02-23T16:49:02.703Z,8.20
2019-02-23T16:51:31.110Z,7.80
2019-02-23T16:53:59.565Z,7.20
2019-02-23T16:56:27.989Z,6.30
2019-02-23T16:58:56.420Z,5.80
2019-02-23T17:01:24.840Z,5.40
2019-02-23T17:03:53.275Z,5.10
2019-02-23T17:06:21.690Z,4.90
2019-02-23T17:08:50.140Z,4.80
2019-02-23T17:11:18.800Z,4.50
2019-02-23T17:13:47.227Z,4.40
2019-02-23T17:16:15.641Z,5.30
2019-02-23T17:18:44.332Z,4.40
2019-02-23T17:21:12.834Z,4.70
2019-02-23T17:23:41.511Z,4.90
2019-02-23T17:26:09.951Z,5.10
2019-02-23T17:28:38.591Z,4.80
2019-02-23T17:31:07.046Z,4.80
2019-02-23T17:33:35.527Z,4.80
2019-02-23T17:36:03.958Z,5.00
2019-02-23T17:38:32.383Z,5.40
2019-02-23T17:41:00.790Z,6.10
2019-02-23T17:43:29.467Z,6.10
2019-02-23T17:45:58.111Z,7.10
2019-02-23T17:48:26.575Z,6.80
2019-02-23T17:50:54.990Z,7.10
2019-02-23T17:53:23.633Z,7.20
2019-02-23T17:55:52.085Z,7.80
2019-02-23T17:58:20.511Z,8.70
2019-02-23T18:00:48.929Z,8.40
2019-02-23T18:03:17.358Z,8.70
2019-02-23T18:05:45.841Z,8.70
2019-02-23T18:08:14.489Z,9.00
2019-02-23T18:10:42.974Z,9.30
2019-02-23T18:13:12.039Z,10.40
2019-02-23T18:15:40.626Z,10.20
2019-02-23T18:18:09.048Z,10.40
2019-02-23T18:20:37.476Z,10.50
2019-02-23T18:23:05.898Z,10.90
2019-02-23T18:25:34.330Z,11.30
2019-02-23T18:28:02.783Z,11.50
2019-02-23T18:30:31.230Z,11.60
2019-02-23T18:32:59.645Z,11.50
2019-02-23T18:35:28.113Z,11.70
2019-02-23T18:37:56.518Z,12.30
2019-02-23T18:40:24.950Z,12.30
2019-02-23T18:42:53.615Z,12.50
2019-02-23T18:45:22.293Z,12.40
2019-02-23T18:47:50.996Z,12.70
2019-02-23T18:50:19.418Z,12.60
2019-02-23T18:52:47.839Z,13.10
2019-02-23T18:55:16.275Z,12.70
2019-02-23T18:57:44.702Z,12.10
2019-02-23T19:00:13.458Z,12.30
2019-02-23T19:02:41.917Z,12.30
2019-02-23T19:05:12.211Z,11.60
2019-02-23T19:07:40.620Z,11.70
2019-02-23T19:10:14.279Z,10.80
2019-02-23T19:12:42.975Z,10.90
2019-02-23T19:15:13.299Z,10.90
2019-02-23T19:17:41.722Z,11.10
2019-02-23T19:20:13.226Z,11.20
2019-02-23T19:22:41.639Z,11.40
2019-02-23T19:25:11.605Z,11.50
2019-02-23T19:27:40.258Z,11.80
2019-02-23T19:30:11.466Z,11.70
2019-02-23T19:32:39.904Z,11.80
2019-02-23T19:35:08.565Z,12.00
2019-02-23T19:37:36.983Z,12.40
2019-02-23T19:40:07.947Z,12.30
2019-02-23T19:42:36.611Z,12.70
2019-02-23T19:45:08.274Z,12.80
2019-02-23T19:47:36.754Z,12.80
2019-02-23T19:50:08.255Z,13.20
2019-02-23T19:52:36.674Z,13.20
2019-02-23T19:55:07.834Z,13.20
2019-02-23T19:57:36.246Z,13.30
2019-02-23T20:00:06.742Z,13.70
2019-02-23T20:02:35.381Z,14.10
2019-02-23T20:05:04.291Z,14.80
2019-02-23T20:07:32.694Z,14.80
2019-02-23T20:10:01.118Z,14.40
2019-02-23T20:12:29.789Z,14.50
2019-02-23T20:14:58.219Z,14.50
2019-02-23T20:17:26.637Z,14.90
2019-02-23T20:19:55.062Z,15.10
2019-02-23T20:22:23.596Z,15.00
2019-02-23T20:24:52.318Z,15.10
2019-02-23T20:27:20.966Z,15.20
2019-02-23T20:29:49.416Z,15.60
2019-02-23T20:32:18.083Z,15.20
2019-02-23T20:34:46.812Z,15.70
2019-02-23T20:37:15.230Z,15.70
2019-02-23T20:39:43.653Z,16.00
2019-02-23T20:42:12.098Z,16.20
2019-02-23T20:44:41.265Z,16.30
2019-02-23T20:47:10.127Z,16.30
2019-02-23T20:49:38.858Z,16.60
2019-02-23T20:52:07.978Z,16.60
2019-02-23T20:54:36.461Z,16.70
2019-02-23T20:57:07.998Z,16.50
2019-02-23T20:59:35.358Z,16.60
2019-02-23T21:02:03.841Z,16.40
2019-02-23T21:04:32.509Z,16.70
2019-02-23T21:07:01.220Z,16.90
2019-02-23T21:09:29.697Z,16.70
2019-02-23T21:11:58.331Z,17.10
2019-02-23T21:14:26.781Z,16.70
2019-02-23T21:16:55.211Z,17.10
2019-02-23T21:19:23.862Z,17.50
2019-02-23T21:21:52.328Z,17.20
2019-02-23T21:24:20.770Z,17.50
2019-02-23T21:26:49.189Z,17.60
2019-02-23T21:29:17.601Z,17.50
2019-02-23T21:31:46.307Z,17.50
2019-02-23T21:34:14.945Z,17.60
2019-02-23T21:36:43.421Z,18.10
2019-02-23T21:39:11.832Z,18.70
2019-02-23T21:41:40.249Z,18.20
2019-02-23T21:44:08.898Z,18.50
2019-02-23T21:46:37.634Z,18.70
2019-02-23T21:49:06.040Z,18.70
2019-02-23T21:51:34.457Z,18.70
2019-02-23T21:54:09.952Z,18.60
2019-02-23T21:56:33.017Z,19.10
2019-02-23T21:59:01.450Z,18.80
2019-02-23T22:01:30.138Z,19.00
2019-02-23T22:03:58.632Z,19.20
2019-02-23T22:06:27.124Z,18.70
2019-02-23T22:08:55.600Z,18.60
2019-02-23T22:11:24.254Z,19.00
2019-02-23T22:13:52.671Z,19.50
2019-02-23T22:16:21.113Z,19.20
2019-02-23T22:18:49.546Z,19.10
2019-02-23T22:21:17.962Z,19.60
2019-02-23T22:23:46.629Z,19.10
2019-02-23T22:26:15.034Z,19.50
2019-02-23T22:28:43.691Z,19.60
2019-02-23T22:31:12.183Z,19.20
2019-02-23T22:33:40.602Z,19.70
2019-02-23T22:36:09.016Z,19.40
2019-02-23T22:38:37.442Z,19.40
2019-02-23T22:41:05.852Z,19.20
2019-02-23T22:43:34.277Z,19.40
2019-02-23T22:46:02.685Z,19.60
2019-02-23T22:48:31.421Z,19.60
2019-02-23T22:51:00.074Z,20.30
2019-02-23T22:53:28.523Z,20.30
2019-02-23T22:55:56.954Z,20.10
2019-02-23T22:58:25.671Z,20.30
2019-02-23T23:00:55.408Z,20.30
2019-02-23T23:03:23.826Z,20.50
2019-02-23T23:05:52.229Z,20.50
2019-02-23T23:08:20.898Z,20.80
2019-02-23T23:10:49.306Z,20.60
2019-02-23T23:13:17.754Z,20.60
2019-02-23T23:15:46.160Z,20.70
2019-02-23T23:18:14.573Z,20.90
2019-02-23T23:20:43.221Z,21.00
2019-02-23T23:23:11.673Z,21.10
2019-02-23T23:25:40.082Z,21.20
2019-02-23T23:28:08.740Z,21.20
2019-02-23T23:30:37.467Z,21.60
2019-02-23T23:33:05.925Z,21.80
2019-02-23T23:35:34.591Z,21.90
2019-02-23T23:38:03.005Z,21.90
2019-02-23T23:40:31.663Z,21.90
2019-02-23T23:43:00.333Z,21.60
2019-02-23T23:45:28.769Z,21.70
2019-02-23T23:47:57.185Z,21.60
2019-02-23T23:50:25.588Z,21.50
2019-02-23T23:52:54.247Z,21.70
2019-02-23T23:55:23.034Z,22.00
2019-02-23T23:57:58.093Z,22.20
